Time;durP1;ratioP1;P1;durP2;ratioP2;P2;SDS_P1;SDS_P2;PMS_P1;PMS_P2;Temp;Humidity;BMP_temperature;BMP_pressure;BME280_temperature;BME280_humidity;BME280_pressure;Samples;Min_cycle;Max_cycle;Signal;HPM_P1;HPM_P2
2020/02/23 00:00:40;;;;;;;2.95;2.1;;;;;;;11.27;38.52539;96094.04;;;;
2020/02/23 00:01:44;;;;;;;2.9;2.1;;;;;;;11.24;38.77246;96099.89;;;;
2020/02/23 00:02:45;;;;;;;2.9;2.1;;;;;;;11.24;38.77246;96099.89;;;;
2020/02/23 00:03:46;;;;;;;2.9;2.1;;;;;;;11.24;38.77246;96099.89;;;;
2020/02/23 00:04:46;;;;;;;2.55;2;;;;;;;11.19;39.49316;96095.64;;;;
2020/02/23 00:05:47;;;;;;;2.55;2;;;;;;;11.19;39.49316;96095.64;;;;
2020/02/23 00:06:47;;;;;;;3.3;2.3;;;;;;;11.1;40.2207;96102.78;;;;
2020/02/23 00:07:48;;;;;;;3.3;2.3;;;;;;;11.1;40.2207;96102.78;;;;
2020/02/23 00:08:48;;;;;;;3.3;2.3;;;;;;;11.1;40.2207;96102.78;;;;
2020/02/23 00:09:49;;;;;;;3.6;2.25;;;;;;;11;41.0332;96111.5;;;;
2020/02/23 00:10:51;;;;;;;3.6;2.25;;;;;;;11;41.0332;96111.5;;;;
2020/02/23 00:11:52;;;;;;;2.8;2.1;;;;;;;10.88;41.79004;96099.19;;;;
2020/02/23 00:12:53;;;;;;;2.8;2.1;;;;;;;10.88;41.79004;96099.19;;;;
2020/02/23 00:13:53;;;;;;;2.8;2.1;;;;;;;10.88;41.79004;96099.19;;;;
2020/02/23 00:14:54;;;;;;;2.8;2.1;;;;;;;10.88;41.79004;96099.19;;;;
2020/02/23 00:15:54;;;;;;;2.8;2.1;;;;;;;10.88;41.79004;96099.19;;;;
2020/02/23 00:16:55;;;;;;;2.8;2.1;;;;;;;10.88;41.79004;96099.19;;;;
2020/02/23 00:17:55;;;;;;;2.8;2.1;;;;;;;10.88;41.79004;96099.19;;;;
2020/02/23 00:18:57;;;;;;;2.8;2.1;;;;;;;10.88;41.79004;96099.19;;;;
2020/02/23 00:19:58;;;;;;;2.8;2.1;;;;;;;10.88;41.79004;96099.19;;;;
2020/02/23 00:20:58;;;;;;;2.8;2.1;;;;;;;10.88;41.79004;96099.19;;;;
2020/02/23 00:21:59;;;;;;;2.8;2.1;;;;;;;10.88;41.79004;96099.19;;;;
2020/02/23 00:23:00;;;;;;;3.5;2.25;;;;;;;10.09;42.49121;96111.83;;;;
2020/02/23 00:24:00;;;;;;;3.5;2.25;;;;;;;10.09;42.49121;96111.83;;;;
2020/02/23 00:25:01;;;;;;;3.5;2.25;;;;;;;10.09;42.49121;96111.83;;;;
2020/02/23 00:26:14;;;;;;;3.75;2.4;;;;;;;9.98;43.87109;96113.42;;;;
2020/02/23 00:27:15;;;;;;;3.75;2.4;;;;;;;9.98;43.87109;96113.42;;;;
2020/02/23 00:28:15;;;;;;;3.6;2.4;;;;;;;9.92;45.04102;96120.48;;;;
2020/02/23 00:29:16;;;;;;;3.6;2.4;;;;;;;9.92;45.04102;96120.48;;;;
2020/02/23 00:30:17;;;;;;;3.6;2.4;;;;;;;9.92;45.04102;96120.48;;;;
2020/02/23 00:31:19;;;;;;;4.05;2.35;;;;;;;9.87;46.00586;96114.48;;;;
2020/02/23 00:32:20;;;;;;;4.05;2.35;;;;;;;9.87;46.00586;96114.48;;;;
2020/02/23 00:33:21;;;;;;;3.8;2.6;;;;;;;9.81;46.6875;96103.69;;;;
2020/02/23 00:34:21;;;;;;;3.8;2.6;;;;;;;9.81;46.6875;96103.69;;;;
2020/02/23 00:35:21;;;;;;;3.8;2.6;;;;;;;9.81;46.6875;96103.69;;;;
2020/02/23 00:36:24;;;;;;;3.05;2.5;;;;;;;9.76;47.4043;96098.11;;;;
2020/02/23 00:37:25;;;;;;;3.05;2.5;;;;;;;9.76;47.4043;96098.11;;;;
2020/02/23 00:38:26;;;;;;;3.05;2.5;;;;;;;9.76;47.4043;96098.11;;;;
2020/02/23 00:39:26;;;;;;;3.05;2.5;;;;;;;9.76;47.4043;96098.11;;;;
2020/02/23 00:40:27;;;;;;;3.05;2.5;;;;;;;9.76;47.4043;96098.11;;;;
2020/02/23 00:41:27;;;;;;;3.05;2.5;;;;;;;9.76;47.4043;96098.11;;;;
2020/02/23 00:42:28;;;;;;;3.05;2.5;;;;;;;9.76;47.4043;96098.11;;;;
2020/02/23 00:43:29;;;;;;;3.05;2.5;;;;;;;9.76;47.4043;96098.11;;;;
2020/02/23 00:44:29;;;;;;;3.05;2.5;;;;;;;9.76;47.4043;96098.11;;;;
2020/02/23 00:45:30;;;;;;;3.05;2.5;;;;;;;9.76;47.4043;96098.11;;;;
2020/02/23 00:46:30;;;;;;;3.05;2.3;;;;;;;9.2;46.32129;96087.91;;;;
2020/02/23 00:47:30;;;;;;;3.05;2.3;;;;;;;9.2;46.32129;96087.91;;;;
2020/02/23 00:48:31;;;;;;;3.05;2.3;;;;;;;9.2;46.32129;96087.91;;;;
2020/02/23 00:49:31;;;;;;;3.5;2.6;;;;;;;9.14;47.85352;96084.17;;;;
2020/02/23 00:50:32;;;;;;;3.5;2.6;;;;;;;9.14;47.85352;96084.17;;;;
2020/02/23 00:51:32;;;;;;;3.5;2.6;;;;;;;9.14;47.85352;96084.17;;;;
2020/02/23 00:52:33;;;;;;;3.5;2.6;;;;;;;9.14;47.85352;96084.17;;;;
2020/02/23 00:53:33;;;;;;;3.5;2.6;;;;;;;9.14;47.85352;96084.17;;;;
2020/02/23 00:54:34;;;;;;;3.5;2.6;;;;;;;9.14;47.85352;96084.17;;;;
2020/02/23 00:55:34;;;;;;;3.5;2.6;;;;;;;9.14;47.85352;96084.17;;;;
2020/02/23 00:56:35;;;;;;;3.5;2.6;;;;;;;9.14;47.85352;96084.17;;;;
2020/02/23 00:57:35;;;;;;;3.5;2.6;;;;;;;9.14;47.85352;96084.17;;;;
2020/02/23 00:58:36;;;;;;;3.5;2.6;;;;;;;9.14;47.85352;96084.17;;;;
2020/02/23 00:59:37;;;;;;;2.55;2.35;;;;;;;8.83;47.18457;96079.92;;;;
2020/02/23 01:00:37;;;;;;;2.55;2.35;;;;;;;8.83;47.18457;96079.92;;;;
2020/02/23 01:01:42;;;;;;;2.55;2.35;;;;;;;8.83;47.18457;96079.92;;;;
2020/02/23 01:02:42;;;;;;;3.5;2.3;;;;;;;8.83;48.51563;96079.51;;;;
2020/02/23 01:03:43;;;;;;;3.5;2.3;;;;;;;8.83;48.51563;96079.51;;;;
2020/02/23 01:04:43;;;;;;;3.5;2.3;;;;;;;8.83;48.51563;96079.51;;;;
2020/02/23 01:05:44;;;;;;;3.5;2.3;;;;;;;8.83;48.51563;96079.51;;;;
2020/02/23 01:06:46;;;;;;;3.5;2.3;;;;;;;8.83;48.51563;96079.51;;;;
2020/02/23 01:07:46;;;;;;;3.5;2.3;;;;;;;8.83;48.51563;96079.51;;;;
2020/02/23 01:08:46;;;;;;;3.5;2.3;;;;;;;8.83;48.51563;96079.51;;;;
2020/02/23 01:09:47;;;;;;;3.5;2.3;;;;;;;8.83;48.51563;96079.51;;;;
2020/02/23 01:10:53;;;;;;;3.5;2.3;;;;;;;8.83;48.51563;96079.51;;;;
2020/02/23 01:11:53;;;;;;;3.5;2.3;;;;;;;8.83;48.51563;96079.51;;;;
2020/02/23 01:12:54;;;;;;;2.900001;2.3;;;;;;;8.65;48.0127;96069.34;;;;
2020/02/23 01:13:54;;;;;;;2.900001;2.3;;;;;;;8.65;48.0127;96069.34;;;;
2020/02/23 01:14:55;;;;;;;2.900001;2.3;;;;;;;8.65;48.0127;96069.34;;;;
2020/02/23 01:15:55;;;;;;;3.05;2.45;;;;;;;8.68;49.16602;96072.97;;;;
2020/02/23 01:16:56;;;;;;;3.05;2.45;;;;;;;8.68;49.16602;96072.97;;;;
2020/02/23 01:17:56;;;;;;;3.05;2.45;;;;;;;8.68;49.16602;96072.97;;;;
2020/02/23 01:18:58;;;;;;;3.05;2.45;;;;;;;8.68;49.16602;96072.97;;;;
2020/02/23 01:19:59;;;;;;;3.05;2.45;;;;;;;8.68;49.16602;96072.97;;;;
2020/02/23 01:20:59;;;;;;;3.05;2.45;;;;;;;8.68;49.16602;96072.97;;;;
2020/02/23 01:22:00;;;;;;;3.05;2.45;;;;;;;8.68;49.16602;96072.97;;;;
2020/02/23 01:23:00;;;;;;;3.05;2.45;;;;;;;8.68;49.16602;96072.97;;;;
2020/02/23 01:24:01;;;;;;;3.05;2.45;;;;;;;8.68;49.16602;96072.97;;;;
2020/02/23 01:25:01;;;;;;;3.05;2.45;;;;;;;8.68;49.16602;96072.97;;;;
2020/02/23 01:26:09;;;;;;;2.6;2.3;;;;;;;8.58;48.47656;96047.49;;;;
2020/02/23 01:27:10;;;;;;;2.6;2.3;;;;;;;8.58;48.47656;96047.49;;;;
2020/02/23 01:28:12;;;;;;;2.6;2.3;;;;;;;8.58;48.47656;96047.49;;;;
2020/02/23 01:29:13;;;;;;;2.4;2.2;;;;;;;8.6;49.57422;96043.53;;;;
2020/02/23 01:30:14;;;;;;;2.4;2.2;;;;;;;8.6;49.57422;96043.53;;;;
2020/02/23 01:31:41;;;;;;;2.4;2.2;;;;;;;8.6;49.57422;96043.53;;;;
2020/02/23 01:32:42;;;;;;;2.4;2.2;;;;;;;8.6;49.57422;96043.53;;;;
2020/02/23 01:33:42;;;;;;;2.4;2.2;;;;;;;8.6;49.57422;96043.53;;;;
2020/02/23 01:34:43;;;;;;;2.4;2.2;;;;;;;8.6;49.57422;96043.53;;;;
2020/02/23 01:35:43;;;;;;;2.4;2.2;;;;;;;8.6;49.57422;96043.53;;;;
2020/02/23 01:36:45;;;;;;;2.4;2.2;;;;;;;8.6;49.57422;96043.53;;;;
2020/02/23 01:37:45;;;;;;;2.4;2.2;;;;;;;8.6;49.57422;96043.53;;;;
2020/02/23 01:38:45;;;;;;;2.4;2.2;;;;;;;8.6;49.57422;96043.53;;;;
2020/02/23 01:39:48;;;;;;;2.6;2.25;;;;;;;8.47;48.81934;96075.41;;;;
2020/02/23 01:40:48;;;;;;;2.6;2.25;;;;;;;8.47;48.81934;96075.41;;;;
2020/02/23 01:41:48;;;;;;;2.6;2.25;;;;;;;8.47;48.81934;96075.41;;;;
2020/02/23 01:42:49;;;;;;;3.2;2.45;;;;;;;8.5;50.36719;96069.19;;;;
2020/02/23 01:43:50;;;;;;;3.2;2.45;;;;;;;8.5;50.36719;96069.19;;;;
2020/02/23 01:44:50;;;;;;;3.2;2.45;;;;;;;8.5;50.36719;96069.19;;;;
2020/02/23 01:45:51;;;;;;;3.2;2.45;;;;;;;8.5;50.36719;96069.19;;;;
2020/02/23 01:46:52;;;;;;;3.2;2.45;;;;;;;8.5;50.36719;96069.19;;;;
2020/02/23 01:47:52;;;;;;;3.2;2.45;;;;;;;8.5;50.36719;96069.19;;;;
2020/02/23 01:48:53;;;;;;;3.2;2.45;;;;;;;8.5;50.36719;96069.19;;;;
2020/02/23 01:49:54;;;;;;;3.2;2.45;;;;;;;8.5;50.36719;96069.19;;;;
2020/02/23 01:50:54;;;;;;;3.2;2.45;;;;;;;8.5;50.36719;96069.19;;;;
2020/02/23 01:53:05;;;;;;;3;2.2;;;;;;;8.36;49.66602;96045.89;;;;
2020/02/23 01:54:24;;;;;;;3;2.2;;;;;;;8.36;49.66602;96045.89;;;;
2020/02/23 01:55:26;;;;;;;3.65;2.3;;;;;;;8.39;51.24512;96013.61;;;;
2020/02/23 01:56:29;;;;;;;3.65;2.3;;;;;;;8.39;51.24512;96013.61;;;;
2020/02/23 01:57:30;;;;;;;3.65;2.3;;;;;;;8.39;51.24512;96013.61;;;;
2020/02/23 01:58:32;;;;;;;3.65;2.3;;;;;;;8.39;51.24512;96013.61;;;;
2020/02/23 01:59:34;;;;;;;3.65;2.3;;;;;;;8.39;51.24512;96013.61;;;;
2020/02/23 02:08:58;;;;;;;2.35;1.8;;;;;;;8.62;52.15137;96025.86;;;;
2020/02/23 02:18:21;;;;;;;1.9;1.7;;;;;;;8.92;52.44434;96012.17;;;;
2020/02/23 02:27:44;;;;;;;1.85;1.65;;;;;;;9.13;51.6543;96022.33;;;;
2020/02/23 02:37:07;;;;;;;1.85;1.65;;;;;;;9.13;51.6543;96022.33;;;;
2020/02/23 02:46:30;;;;;;;2.4;1.7;;;;;;;9.33;51.23828;96015.05;;;;
2020/02/23 02:55:54;;;;;;;1.85;1.4;;;;;;;9.46;50.99512;96013.78;;;;
2020/02/23 03:05:17;;;;;;;1.85;1.35;;;;;;;9.64;50.1875;96029.69;;;;
2020/02/23 03:14:40;;;;;;;2.5;1.3;;;;;;;9.71;50.3584;96026.33;;;;
2020/02/23 03:24:03;;;;;;;1.7;1.2;;;;;;;9.89;50.3252;96042.27;;;;
2020/02/23 03:33:26;;;;;;;1.5;1.3;;;;;;;9.8;50.57227;96044.06;;;;
2020/02/23 03:42:50;;;;;;;1.5;1.3;;;;;;;9.8;50.57227;96044.06;;;;
2020/02/23 03:52:13;;;;;;;1.95;1.4;;;;;;;9.69;49.98926;96024.91;;;;
2020/02/23 04:01:36;;;;;;;2.55;1.3;;;;;;;9.71;49.4541;96024.98;;;;
2020/02/23 04:10:59;;;;;;;2;1.3;;;;;;;9.65;49.40332;96039.33;;;;
2020/02/23 04:20:23;;;;;;;2;1.3;;;;;;;9.68;49.68652;96019.19;;;;
2020/02/23 04:29:46;;;;;;;1.5;1.3;;;;;;;9.53;49.98145;96039.77;;;;
2020/02/23 04:39:09;;;;;;;2.5;1.5;;;;;;;9.31;50.90234;96055.36;;;;
2020/02/23 04:48:32;;;;;;;2.1;1.4;;;;;;;9.04;52.16895;96035.8;;;;
2020/02/23 04:57:55;;;;;;;2.35;1.5;;;;;;;8.81;53.87988;96039.72;;;;
2020/02/23 05:07:18;;;;;;;2.2;1.3;;;;;;;8.53;54.66895;96067.35;;;;
2020/02/23 05:09:24;;;;;;;2.2;1.3;;;;;;;8.53;54.66895;96067.35;;;;
2020/02/23 05:10:25;;;;;;;2.2;1.3;;;;;;;8.53;54.66895;96067.35;;;;
2020/02/23 05:11:25;;;;;;;2.2;1.3;;;;;;;8.53;54.66895;96067.35;;;;
2020/02/23 05:12:26;;;;;;;2.2;1.3;;;;;;;8.53;54.66895;96067.35;;;;
2020/02/23 05:13:26;;;;;;;2.2;1.3;;;;;;;8.53;54.66895;96067.35;;;;
2020/02/23 05:14:30;;;;;;;2.2;1.3;;;;;;;8.53;54.66895;96067.35;;;;
2020/02/23 05:15:33;;;;;;;2.2;1.3;;;;;;;8.53;54.66895;96067.35;;;;
2020/02/23 05:16:33;;;;;;;2.2;1.3;;;;;;;8.53;54.66895;96067.35;;;;
2020/02/23 05:17:34;;;;;;;2.65;1.5;;;;;;;8.32;56.06738;96027.56;;;;
2020/02/23 05:18:34;;;;;;;2.65;1.5;;;;;;;8.32;56.06738;96027.56;;;;
2020/02/23 05:19:35;;;;;;;2.65;1.5;;;;;;;8.32;56.06738;96027.56;;;;
2020/02/23 05:20:35;;;;;;;2.65;1.5;;;;;;;8.32;56.06738;96027.56;;;;
2020/02/23 05:21:36;;;;;;;2.65;1.5;;;;;;;8.32;56.06738;96027.56;;;;
2020/02/23 05:22:36;;;;;;;2.65;1.5;;;;;;;8.32;56.06738;96027.56;;;;
2020/02/23 05:23:37;;;;;;;2.65;1.5;;;;;;;8.32;56.06738;96027.56;;;;
2020/02/23 05:24:37;;;;;;;2.65;1.5;;;;;;;8.32;56.06738;96027.56;;;;
2020/02/23 05:25:38;;;;;;;2.65;1.5;;;;;;;8.32;56.06738;96027.56;;;;
2020/02/23 05:26:39;;;;;;;2.65;1.5;;;;;;;8.32;56.06738;96027.56;;;;
2020/02/23 05:27:39;;;;;;;2.7;1.6;;;;;;;8.12;57.07813;96040.6;;;;
2020/02/23 05:28:40;;;;;;;2.7;1.6;;;;;;;8.12;57.07813;96040.6;;;;
2020/02/23 05:29:40;;;;;;;2.7;1.6;;;;;;;8.12;57.07813;96040.6;;;;
2020/02/23 05:30:41;;;;;;;2.7;1.6;;;;;;;8.12;57.07813;96040.6;;;;
2020/02/23 05:31:41;;;;;;;2.7;1.6;;;;;;;8.12;57.07813;96040.6;;;;
2020/02/23 05:32:42;;;;;;;2.7;1.6;;;;;;;8.12;57.07813;96040.6;;;;
2020/02/23 05:33:42;;;;;;;2.7;1.6;;;;;;;8.12;57.07813;96040.6;;;;
2020/02/23 05:34:43;;;;;;;2.7;1.6;;;;;;;8.12;57.07813;96040.6;;;;
2020/02/23 05:35:44;;;;;;;2.7;1.6;;;;;;;8.12;57.07813;96040.6;;;;
2020/02/23 05:36:44;;;;;;;2.7;1.6;;;;;;;8.12;57.07813;96040.6;;;;
2020/02/23 05:37:45;;;;;;;2.7;1.6;;;;;;;8.12;57.07813;96040.6;;;;
2020/02/23 05:38:45;;;;;;;4.35;1.6;;;;;;;7.88;58.8623;96045.19;;;;
2020/02/23 05:39:46;;;;;;;4.35;1.6;;;;;;;7.88;58.8623;96045.19;;;;
2020/02/23 05:40:46;;;;;;;4.35;1.6;;;;;;;7.88;58.8623;96045.19;;;;
2020/02/23 05:41:47;;;;;;;4.35;1.6;;;;;;;7.88;58.8623;96045.19;;;;
2020/02/23 05:42:47;;;;;;;4.35;1.6;;;;;;;7.88;58.8623;96045.19;;;;
2020/02/23 05:43:48;;;;;;;4.35;1.6;;;;;;;7.88;58.8623;96045.19;;;;
2020/02/23 05:44:48;;;;;;;4.35;1.6;;;;;;;7.88;58.8623;96045.19;;;;
2020/02/23 05:45:49;;;;;;;4.35;1.6;;;;;;;7.88;58.8623;96045.19;;;;
2020/02/23 05:46:49;;;;;;;4.35;1.6;;;;;;;7.88;58.8623;96045.19;;;;
2020/02/23 05:47:50;;;;;;;4.35;1.6;;;;;;;7.88;58.8623;96045.19;;;;
2020/02/23 05:48:50;;;;;;;3.2;1.75;;;;;;;7.67;60.01953;96027.29;;;;
2020/02/23 05:49:50;;;;;;;3.2;1.75;;;;;;;7.67;60.01953;96027.29;;;;
2020/02/23 05:50:51;;;;;;;3.2;1.75;;;;;;;7.67;60.01953;96027.29;;;;
2020/02/23 05:51:52;;;;;;;3.2;1.75;;;;;;;7.67;60.01953;96027.29;;;;
2020/02/23 05:52:52;;;;;;;3.2;1.75;;;;;;;7.67;60.01953;96027.29;;;;
2020/02/23 05:53:52;;;;;;;3.2;1.75;;;;;;;7.67;60.01953;96027.29;;;;
2020/02/23 05:54:53;;;;;;;3.2;1.75;;;;;;;7.67;60.01953;96027.29;;;;
2020/02/23 05:55:54;;;;;;;3.2;1.75;;;;;;;7.67;60.01953;96027.29;;;;
2020/02/23 05:56:55;;;;;;;3.2;1.75;;;;;;;7.67;60.01953;96027.29;;;;
2020/02/23 05:57:55;;;;;;;3.2;1.75;;;;;;;7.67;60.01953;96027.29;;;;
2020/02/23 05:58:56;;;;;;;3.2;1.75;;;;;;;7.67;60.01953;96027.29;;;;
2020/02/23 05:59:56;;;;;;;3;1.8;;;;;;;7.54;60.84473;95996.32;;;;
2020/02/23 06:00:56;;;;;;;3;1.8;;;;;;;7.54;60.84473;95996.32;;;;
2020/02/23 06:01:57;;;;;;;3;1.8;;;;;;;7.54;60.84473;95996.32;;;;
2020/02/23 06:02:57;;;;;;;3;1.8;;;;;;;7.54;60.84473;95996.32;;;;
2020/02/23 06:03:58;;;;;;;3;1.8;;;;;;;7.54;60.84473;95996.32;;;;
2020/02/23 06:04:59;;;;;;;3;1.8;;;;;;;7.54;60.84473;95996.32;;;;
2020/02/23 06:05:59;;;;;;;3;1.8;;;;;;;7.54;60.84473;95996.32;;;;
2020/02/23 06:07:00;;;;;;;3;1.8;;;;;;;7.54;60.84473;95996.32;;;;
2020/02/23 06:08:00;;;;;;;3;1.8;;;;;;;7.54;60.84473;95996.32;;;;
2020/02/23 06:09:01;;;;;;;3;1.8;;;;;;;7.54;60.84473;95996.32;;;;
2020/02/23 06:10:02;;;;;;;1.95;1.5;;;;;;;7.33;62.23242;95986.11;;;;
2020/02/23 06:11:03;;;;;;;1.95;1.5;;;;;;;7.33;62.23242;95986.11;;;;
2020/02/23 06:12:04;;;;;;;1.95;1.5;;;;;;;7.33;62.23242;95986.11;;;;
2020/02/23 06:13:04;;;;;;;1.95;1.5;;;;;;;7.33;62.23242;95986.11;;;;
2020/02/23 06:14:05;;;;;;;1.95;1.5;;;;;;;7.33;62.23242;95986.11;;;;
2020/02/23 06:15:06;;;;;;;1.95;1.5;;;;;;;7.33;62.23242;95986.11;;;;
2020/02/23 06:16:06;;;;;;;1.95;1.5;;;;;;;7.33;62.23242;95986.11;;;;
2020/02/23 06:17:07;;;;;;;1.95;1.5;;;;;;;7.33;62.23242;95986.11;;;;
2020/02/23 06:18:07;;;;;;;1.95;1.5;;;;;;;7.33;62.23242;95986.11;;;;
2020/02/23 06:19:08;;;;;;;1.95;1.5;;;;;;;7.33;62.23242;95986.11;;;;
2020/02/23 06:20:08;;;;;;;1.95;1.5;;;;;;;7.33;62.23242;95986.11;;;;
2020/02/23 06:21:09;;;;;;;2.3;1.75;;;;;;;7.25;62.90332;95981.42;;;;
2020/02/23 06:22:09;;;;;;;2.3;1.75;;;;;;;7.25;62.90332;95981.42;;;;
2020/02/23 06:23:10;;;;;;;2.3;1.75;;;;;;;7.25;62.90332;95981.42;;;;
2020/02/23 06:24:10;;;;;;;2.3;1.75;;;;;;;7.25;62.90332;95981.42;;;;
2020/02/23 06:25:11;;;;;;;2.3;1.75;;;;;;;7.25;62.90332;95981.42;;;;
2020/02/23 06:26:11;;;;;;;2.3;1.75;;;;;;;7.25;62.90332;95981.42;;;;
2020/02/23 06:27:11;;;;;;;2.3;1.75;;;;;;;7.25;62.90332;95981.42;;;;
2020/02/23 06:28:12;;;;;;;2.3;1.75;;;;;;;7.25;62.90332;95981.42;;;;
2020/02/23 06:29:13;;;;;;;2.3;1.75;;;;;;;7.25;62.90332;95981.42;;;;
2020/02/23 06:30:13;;;;;;;2.3;1.75;;;;;;;7.25;62.90332;95981.42;;;;
2020/02/23 06:31:14;;;;;;;2.3;1.6;;;;;;;7.17;63.67969;95960.08;;;;
2020/02/23 06:32:14;;;;;;;2.3;1.6;;;;;;;7.17;63.67969;95960.08;;;;
2020/02/23 06:33:14;;;;;;;2.3;1.6;;;;;;;7.17;63.67969;95960.08;;;;
2020/02/23 06:34:15;;;;;;;2.3;1.6;;;;;;;7.17;63.67969;95960.08;;;;
2020/02/23 06:35:16;;;;;;;2.3;1.6;;;;;;;7.17;63.67969;95960.08;;;;
2020/02/23 06:36:16;;;;;;;2.3;1.6;;;;;;;7.17;63.67969;95960.08;;;;
2020/02/23 06:37:17;;;;;;;2.3;1.6;;;;;;;7.17;63.67969;95960.08;;;;
2020/02/23 06:38:17;;;;;;;2.3;1.6;;;;;;;7.17;63.67969;95960.08;;;;
2020/02/23 06:39:18;;;;;;;2.3;1.6;;;;;;;7.17;63.67969;95960.08;;;;
2020/02/23 06:40:18;;;;;;;2.3;1.6;;;;;;;7.17;63.67969;95960.08;;;;
2020/02/23 06:41:19;;;;;;;2.3;1.6;;;;;;;7.17;63.67969;95960.08;;;;
2020/02/23 06:42:19;;;;;;;2.95;1.9;;;;;;;7.24;63.88184;95953.72;;;;
2020/02/23 06:43:20;;;;;;;2.95;1.9;;;;;;;7.24;63.88184;95953.72;;;;
2020/02/23 06:44:57;;;;;;;2.95;1.9;;;;;;;7.24;63.88184;95953.72;;;;
2020/02/23 06:46:48;;;;;;;2.95;1.9;;;;;;;7.24;63.88184;95953.72;;;;
2020/02/23 06:47:54;;;;;;;2.95;1.9;;;;;;;7.24;63.88184;95953.72;;;;
2020/02/23 06:49:28;;;;;;;2.95;1.9;;;;;;;7.24;63.88184;95953.72;;;;
2020/02/23 06:50:31;;;;;;;2.95;1.9;;;;;;;7.24;63.88184;95953.72;;;;
2020/02/23 06:51:31;;;;;;;2.95;1.9;;;;;;;7.24;63.88184;95953.72;;;;
2020/02/23 06:52:35;;;;;;;1.65;1.45;;;;;;;7.39;63.45703;95920.01;;;;
2020/02/23 06:53:36;;;;;;;1.65;1.45;;;;;;;7.39;63.45703;95920.01;;;;
2020/02/23 06:54:36;;;;;;;1.65;1.45;;;;;;;7.39;63.45703;95920.01;;;;
2020/02/23 06:55:37;;;;;;;1.65;1.45;;;;;;;7.39;63.45703;95920.01;;;;
2020/02/23 06:56:37;;;;;;;1.65;1.45;;;;;;;7.39;63.45703;95920.01;;;;
2020/02/23 06:57:38;;;;;;;1.65;1.45;;;;;;;7.39;63.45703;95920.01;;;;
2020/02/23 06:58:38;;;;;;;1.65;1.45;;;;;;;7.39;63.45703;95920.01;;;;
2020/02/23 06:59:39;;;;;;;1.65;1.45;;;;;;;7.39;63.45703;95920.01;;;;
2020/02/23 07:00:39;;;;;;;1.65;1.45;;;;;;;7.39;63.45703;95920.01;;;;
2020/02/23 07:01:40;;;;;;;1.65;1.45;;;;;;;7.39;63.45703;95920.01;;;;
2020/02/23 07:02:40;;;;;;;1.65;1.45;;;;;;;7.39;63.45703;95920.01;;;;
2020/02/23 07:03:43;;;;;;;3.35;1.9;;;;;;;7.6;63.05078;95898.8;;;;
2020/02/23 07:04:44;;;;;;;3.35;1.9;;;;;;;7.6;63.05078;95898.8;;;;
2020/02/23 07:05:44;;;;;;;3.35;1.9;;;;;;;7.6;63.05078;95898.8;;;;
2020/02/23 07:06:44;;;;;;;3.35;1.9;;;;;;;7.6;63.05078;95898.8;;;;
2020/02/23 07:07:45;;;;;;;3.35;1.9;;;;;;;7.6;63.05078;95898.8;;;;
2020/02/23 07:08:46;;;;;;;3.35;1.9;;;;;;;7.6;63.05078;95898.8;;;;
2020/02/23 07:09:47;;;;;;;3.35;1.9;;;;;;;7.6;63.05078;95898.8;;;;
2020/02/23 07:10:47;;;;;;;3.35;1.9;;;;;;;7.6;63.05078;95898.8;;;;
2020/02/23 07:11:48;;;;;;;3.35;1.9;;;;;;;7.6;63.05078;95898.8;;;;
2020/02/23 07:12:48;;;;;;;3.35;1.9;;;;;;;7.6;63.05078;95898.8;;;;
2020/02/23 07:13:49;;;;;;;1.65;1.5;;;;;;;7.75;62.62402;95883.34;;;;
2020/02/23 07:14:49;;;;;;;1.65;1.5;;;;;;;7.75;62.62402;95883.34;;;;
2020/02/23 07:15:50;;;;;;;1.65;1.5;;;;;;;7.75;62.62402;95883.34;;;;
2020/02/23 07:16:50;;;;;;;1.65;1.5;;;;;;;7.75;62.62402;95883.34;;;;
2020/02/23 07:17:51;;;;;;;1.65;1.5;;;;;;;7.75;62.62402;95883.34;;;;
2020/02/23 07:18:51;;;;;;;1.65;1.5;;;;;;;7.75;62.62402;95883.34;;;;
2020/02/23 07:19:52;;;;;;;1.65;1.5;;;;;;;7.75;62.62402;95883.34;;;;
2020/02/23 07:20:52;;;;;;;1.65;1.5;;;;;;;7.75;62.62402;95883.34;;;;
2020/02/23 07:21:52;;;;;;;1.65;1.5;;;;;;;7.75;62.62402;95883.34;;;;
2020/02/23 07:22:53;;;;;;;1.65;1.5;;;;;;;7.75;62.62402;95883.34;;;;
2020/02/23 07:23:53;;;;;;;1.65;1.5;;;;;;;7.75;62.62402;95883.34;;;;
2020/02/23 07:24:54;;;;;;;2.05;1.55;;;;;;;8.1;62.00195;95838.69;;;;
2020/02/23 07:25:54;;;;;;;2.05;1.55;;;;;;;8.1;62.00195;95838.69;;;;
2020/02/23 07:26:55;;;;;;;2.05;1.55;;;;;;;8.1;62.00195;95838.69;;;;
2020/02/23 07:27:55;;;;;;;2.05;1.55;;;;;;;8.1;62.00195;95838.69;;;;
2020/02/23 07:28:56;;;;;;;2.05;1.55;;;;;;;8.1;62.00195;95838.69;;;;
2020/02/23 07:29:56;;;;;;;2.05;1.55;;;;;;;8.1;62.00195;95838.69;;;;
2020/02/23 07:30:56;;;;;;;2.05;1.55;;;;;;;8.1;62.00195;95838.69;;;;
2020/02/23 07:31:57;;;;;;;2.05;1.55;;;;;;;8.1;62.00195;95838.69;;;;
2020/02/23 07:32:58;;;;;;;2.05;1.55;;;;;;;8.1;62.00195;95838.69;;;;
2020/02/23 07:34:18;;;;;;;2.05;1.55;;;;;;;8.1;62.00195;95838.69;;;;
2020/02/23 07:35:19;;;;;;;1.7;1.6;;;;;;;8.53;60.81152;95831.43;;;;
2020/02/23 07:36:20;;;;;;;1.7;1.6;;;;;;;8.53;60.81152;95831.43;;;;
2020/02/23 07:37:21;;;;;;;1.7;1.6;;;;;;;8.53;60.81152;95831.43;;;;
2020/02/23 07:38:21;;;;;;;1.7;1.6;;;;;;;8.53;60.81152;95831.43;;;;
2020/02/23 07:39:22;;;;;;;1.7;1.6;;;;;;;8.53;60.81152;95831.43;;;;
2020/02/23 07:40:25;;;;;;;1.7;1.6;;;;;;;8.53;60.81152;95831.43;;;;
2020/02/23 07:41:25;;;;;;;1.7;1.6;;;;;;;8.53;60.81152;95831.43;;;;
2020/02/23 07:42:26;;;;;;;1.7;1.6;;;;;;;8.53;60.81152;95831.43;;;;
2020/02/23 07:43:26;;;;;;;1.7;1.6;;;;;;;8.53;60.81152;95831.43;;;;
2020/02/23 07:44:27;;;;;;;1.7;1.6;;;;;;;8.53;60.81152;95831.43;;;;
2020/02/23 07:45:27;;;;;;;2.15;1.5;;;;;;;8.93;59.73438;95837.55;;;;
2020/02/23 07:46:28;;;;;;;2.15;1.5;;;;;;;8.93;59.73438;95837.55;;;;
2020/02/23 07:47:28;;;;;;;2.15;1.5;;;;;;;8.93;59.73438;95837.55;;;;
2020/02/23 07:48:29;;;;;;;2.15;1.5;;;;;;;8.93;59.73438;95837.55;;;;
2020/02/23 07:49:29;;;;;;;2.15;1.5;;;;;;;8.93;59.73438;95837.55;;;;
2020/02/23 07:50:30;;;;;;;2.15;1.5;;;;;;;8.93;59.73438;95837.55;;;;
2020/02/23 07:51:30;;;;;;;2.15;1.5;;;;;;;8.93;59.73438;95837.55;;;;
2020/02/23 07:52:31;;;;;;;2.15;1.5;;;;;;;8.93;59.73438;95837.55;;;;
2020/02/23 07:53:32;;;;;;;2.15;1.5;;;;;;;8.93;59.73438;95837.55;;;;
2020/02/23 07:54:32;;;;;;;2.15;1.5;;;;;;;8.93;59.73438;95837.55;;;;
2020/02/23 07:55:33;;;;;;;2.15;1.5;;;;;;;8.93;59.73438;95837.55;;;;
2020/02/23 07:56:33;;;;;;;1.8;1.5;;;;;;;9.22;58.76563;95827.59;;;;
2020/02/23 07:57:34;;;;;;;1.8;1.5;;;;;;;9.22;58.76563;95827.59;;;;
2020/02/23 07:58:35;;;;;;;1.8;1.5;;;;;;;9.22;58.76563;95827.59;;;;
2020/02/23 07:59:35;;;;;;;1.8;1.5;;;;;;;9.22;58.76563;95827.59;;;;
2020/02/23 08:00:36;;;;;;;1.8;1.5;;;;;;;9.22;58.76563;95827.59;;;;
2020/02/23 08:01:36;;;;;;;1.8;1.5;;;;;;;9.22;58.76563;95827.59;;;;
2020/02/23 08:02:37;;;;;;;1.8;1.5;;;;;;;9.22;58.76563;95827.59;;;;
2020/02/23 08:03:37;;;;;;;1.8;1.5;;;;;;;9.22;58.76563;95827.59;;;;
2020/02/23 08:04:38;;;;;;;1.8;1.5;;;;;;;9.22;58.76563;95827.59;;;;
2020/02/23 08:05:38;;;;;;;1.8;1.5;;;;;;;9.22;58.76563;95827.59;;;;
2020/02/23 08:06:39;;;;;;;2.5;1.65;;;;;;;9.64;57.80469;95786.91;;;;
2020/02/23 08:07:39;;;;;;;2.5;1.65;;;;;;;9.64;57.80469;95786.91;;;;
2020/02/23 08:08:40;;;;;;;2.5;1.65;;;;;;;9.64;57.80469;95786.91;;;;
2020/02/23 08:09:41;;;;;;;2.5;1.65;;;;;;;9.64;57.80469;95786.91;;;;
2020/02/23 08:10:42;;;;;;;2.5;1.65;;;;;;;9.64;57.80469;95786.91;;;;
2020/02/23 08:11:42;;;;;;;2.5;1.65;;;;;;;9.64;57.80469;95786.91;;;;
2020/02/23 08:12:43;;;;;;;2.5;1.65;;;;;;;9.64;57.80469;95786.91;;;;
2020/02/23 08:13:43;;;;;;;2.5;1.65;;;;;;;9.64;57.80469;95786.91;;;;
2020/02/23 08:14:45;;;;;;;2.5;1.65;;;;;;;9.64;57.80469;95786.91;;;;
2020/02/23 08:15:46;;;;;;;2.5;1.65;;;;;;;9.64;57.80469;95786.91;;;;
2020/02/23 08:16:47;;;;;;;2.5;1.65;;;;;;;9.64;57.80469;95786.91;;;;
2020/02/23 08:17:47;;;;;;;1.85;1.35;;;;;;;9.83;56.85352;95780.58;;;;
2020/02/23 08:18:48;;;;;;;1.85;1.35;;;;;;;9.83;56.85352;95780.58;;;;
2020/02/23 08:19:49;;;;;;;1.85;1.35;;;;;;;9.83;56.85352;95780.58;;;;
2020/02/23 08:20:49;;;;;;;1.85;1.35;;;;;;;9.83;56.85352;95780.58;;;;
2020/02/23 08:21:50;;;;;;;1.85;1.35;;;;;;;9.83;56.85352;95780.58;;;;
2020/02/23 08:22:50;;;;;;;1.85;1.35;;;;;;;9.83;56.85352;95780.58;;;;
2020/02/23 08:23:51;;;;;;;1.85;1.35;;;;;;;9.83;56.85352;95780.58;;;;
2020/02/23 08:24:52;;;;;;;1.85;1.35;;;;;;;9.83;56.85352;95780.58;;;;
2020/02/23 08:25:53;;;;;;;1.85;1.35;;;;;;;9.83;56.85352;95780.58;;;;
2020/02/23 08:26:53;;;;;;;1.85;1.35;;;;;;;9.83;56.85352;95780.58;;;;
2020/02/23 08:27:53;;;;;;;1.7;1.5;;;;;;;10.19;55.8252;95784.36;;;;
2020/02/23 08:28:54;;;;;;;1.7;1.5;;;;;;;10.19;55.8252;95784.36;;;;
2020/02/23 08:29:54;;;;;;;1.7;1.5;;;;;;;10.19;55.8252;95784.36;;;;
2020/02/23 08:30:55;;;;;;;1.7;1.5;;;;;;;10.19;55.8252;95784.36;;;;
2020/02/23 08:31:55;;;;;;;1.7;1.5;;;;;;;10.19;55.8252;95784.36;;;;
2020/02/23 08:32:56;;;;;;;1.7;1.5;;;;;;;10.19;55.8252;95784.36;;;;
2020/02/23 08:33:56;;;;;;;1.7;1.5;;;;;;;10.19;55.8252;95784.36;;;;
2020/02/23 08:34:57;;;;;;;1.7;1.5;;;;;;;10.19;55.8252;95784.36;;;;
2020/02/23 08:35:57;;;;;;;1.7;1.5;;;;;;;10.19;55.8252;95784.36;;;;
2020/02/23 08:36:58;;;;;;;1.7;1.5;;;;;;;10.19;55.8252;95784.36;;;;
2020/02/23 08:37:59;;;;;;;1.7;1.5;;;;;;;10.19;55.8252;95784.36;;;;
2020/02/23 08:38:59;;;;;;;1.7;1.6;;;;;;;10.44;55.16797;95746.01;;;;
2020/02/23 08:40:00;;;;;;;1.7;1.6;;;;;;;10.44;55.16797;95746.01;;;;
2020/02/23 08:41:02;;;;;;;1.7;1.6;;;;;;;10.44;55.16797;95746.01;;;;
2020/02/23 08:42:02;;;;;;;1.7;1.6;;;;;;;10.44;55.16797;95746.01;;;;
2020/02/23 08:43:04;;;;;;;1.7;1.6;;;;;;;10.44;55.16797;95746.01;;;;
2020/02/23 08:44:05;;;;;;;1.7;1.6;;;;;;;10.44;55.16797;95746.01;;;;
2020/02/23 08:45:06;;;;;;;1.7;1.6;;;;;;;10.44;55.16797;95746.01;;;;
2020/02/23 08:46:07;;;;;;;1.7;1.6;;;;;;;10.44;55.16797;95746.01;;;;
2020/02/23 08:47:08;;;;;;;1.7;1.6;;;;;;;10.44;55.16797;95746.01;;;;
2020/02/23 08:48:09;;;;;;;1.7;1.6;;;;;;;10.44;55.16797;95746.01;;;;
2020/02/23 08:49:09;;;;;;;2;1.6;;;;;;;10.66;54.61426;95756.36;;;;